sensor_id;sensor_type;location;lat;lon;timestamp;pressure;altitude;pressure_sealevel;temperature;humidity
52975;BME280;38839;45.186;5.720;2023-11-19T00:00:52;99946.16;;;6.96;100.00
52975;BME280;38839;45.186;5.720;2023-11-19T00:03:17;99940.16;;;6.97;100.00
52975;BME280;38839;45.186;5.720;2023-11-19T00:05:43;99943.66;;;6.99;100.00
52975;BME280;38839;45.186;5.720;2023-11-19T00:08:09;99939.22;;;6.95;100.00
52975;BME280;38839;45.186;5.720;2023-11-19T00:10:35;99937.50;;;6.96;100.00
52975;BME280;38839;45.186;5.720;2023-11-19T00:13:00;99934.97;;;6.97;100.00
52975;BME280;38839;45.186;5.720;2023-11-19T00:15:28;99937.56;;;6.99;100.00
52975;BME280;38839;45.186;5.720;2023-11-19T00:17:53;99932.38;;;6.99;100.00
52975;BME280;38839;45.186;5.720;2023-11-19T00:20:19;99930.78;;;7.04;100.00
52975;BME280;38839;45.186;5.720;2023-11-19T00:22:47;99908.22;;;7.00;100.00
52975;BME280;38839;45.186;5.720;2023-11-19T00:25:20;99915.88;;;6.95;100.00
52975;BME280;38839;45.186;5.720;2023-11-19T00:27:46;99916.66;;;6.93;100.00
52975;BME280;38839;45.186;5.720;2023-11-19T00:30:12;99919.25;;;6.93;100.00
52975;BME280;38839;45.186;5.720;2023-11-19T00:32:39;99926.13;;;6.89;100.00
52975;BME280;38839;45.186;5.720;2023-11-19T00:35:05;99923.47;;;6.88;100.00
52975;BME280;38839;45.186;5.720;2023-11-19T00:37:31;99918.19;;;6.84;100.00
52975;BME280;38839;45.186;5.720;2023-11-19T00:39:57;99919.13;;;6.87;100.00
52975;BME280;38839;45.186;5.720;2023-11-19T00:42:23;99920.78;;;6.83;100.00
52975;BME280;38839;45.186;5.720;2023-11-19T00:44:50;99926.75;;;6.80;100.00
52975;BME280;38839;45.186;5.720;2023-11-19T00:47:15;99929.34;;;6.79;100.00
52975;BME280;38839;45.186;5.720;2023-11-19T00:49:40;99920.69;;;6.80;100.00
52975;BME280;38839;45.186;5.720;2023-11-19T00:52:06;99912.84;;;6.77;100.00
52975;BME280;38839;45.186;5.720;2023-11-19T00:54:32;99924.00;;;6.74;100.00
52975;BME280;38839;45.186;5.720;2023-11-19T00:56:57;99931.72;;;6.71;100.00
52975;BME280;38839;45.186;5.720;2023-11-19T00:59:23;99923.06;;;6.71;100.00
52975;BME280;38839;45.186;5.720;2023-11-19T01:01:48;99921.19;;;6.65;100.00
52975;BME280;38839;45.186;5.720;2023-11-19T01:04:14;99909.06;;;6.64;100.00
52975;BME280;38839;45.186;5.720;2023-11-19T01:06:40;99911.69;;;6.65;100.00
52975;BME280;38839;45.186;5.720;2023-11-19T01:09:07;99903.09;;;6.67;100.00
52975;BME280;38839;45.186;5.720;2023-11-19T01:11:33;99901.38;;;6.67;100.00
52975;BME280;38839;45.186;5.720;2023-11-19T01:13:59;99907.16;;;6.57;100.00
52975;BME280;38839;45.186;5.720;2023-11-19T01:16:26;99901.13;;;6.58;100.00
52975;BME280;38839;45.186;5.720;2023-11-19T01:18:51;99907.16;;;6.57;100.00
52975;BME280;38839;45.186;5.720;2023-11-19T01:21:17;99900.22;;;6.56;100.00
52975;BME280;38839;45.186;5.720;2023-11-19T01:23:43;99900.22;;;6.56;100.00
52975;BME280;38839;45.186;5.720;2023-11-19T01:26:12;99888.16;;;6.58;100.00
52975;BME280;38839;45.186;5.720;2023-11-19T01:28:38;99889.03;;;6.57;100.00
52975;BME280;38839;45.186;5.720;2023-11-19T01:31:05;99886.44;;;6.57;100.00
52975;BME280;38839;45.186;5.720;2023-11-19T01:33:30;99888.16;;;6.58;100.00
52975;BME280;38839;45.186;5.720;2023-11-19T01:35:56;99879.63;;;6.60;100.00
52975;BME280;38839;45.186;5.720;2023-11-19T01:38:24;99886.50;;;6.60;100.00
52975;BME280;38839;45.186;5.720;2023-11-19T01:40:49;99881.16;;;6.54;100.00
52975;BME280;38839;45.186;5.720;2023-11-19T01:43:39;99878.41;;;6.46;100.00
52975;BME280;38839;45.186;5.720;2023-11-19T01:46:08;99886.88;;;6.40;100.00
52975;BME280;38839;45.186;5.720;2023-11-19T01:48:40;99881.69;;;6.40;100.00
52975;BME280;38839;45.186;5.720;2023-11-19T01:51:07;99877.59;;;6.49;100.00
52975;BME280;38839;45.186;5.720;2023-11-19T01:53:34;99873.16;;;6.44;100.00
52975;BME280;38839;45.186;5.720;2023-11-19T01:56:01;99877.59;;;6.49;100.00
52975;BME280;38839;45.186;5.720;2023-11-19T01:58:26;99877.44;;;6.42;100.00
52975;BME280;38839;45.186;5.720;2023-11-19T02:00:52;99883.53;;;6.44;100.00
52975;BME280;38839;45.186;5.720;2023-11-19T02:03:18;99887.94;;;6.49;100.00
52975;BME280;38839;45.186;5.720;2023-11-19T02:05:45;99881.97;;;6.51;100.00
52975;BME280;38839;45.186;5.720;2023-11-19T02:08:14;99883.75;;;6.54;100.00
52975;BME280;38839;45.186;5.720;2023-11-19T02:10:39;99881.19;;;6.55;100.00
52975;BME280;38839;45.186;5.720;2023-11-19T02:13:04;99880.22;;;6.50;100.00
52975;BME280;38839;45.186;5.720;2023-11-19T02:15:32;99881.31;;;6.60;100.00
52975;BME280;38839;45.186;5.720;2023-11-19T02:17:57;99884.91;;;6.65;100.00
52975;BME280;38839;45.186;5.720;2023-11-19T02:20:42;99885.88;;;6.69;100.00
52975;BME280;38839;45.186;5.720;2023-11-19T02:23:07;99875.59;;;6.73;100.00
52975;BME280;38839;45.186;5.720;2023-11-19T02:25:33;99872.16;;;6.74;100.00
52975;BME280;38839;45.186;5.720;2023-11-19T02:28:00;99874.72;;;6.74;100.00
52975;BME280;38839;45.186;5.720;2023-11-19T02:30:26;99879.00;;;6.72;100.00
52975;BME280;38839;45.186;5.720;2023-11-19T02:32:55;99886.78;;;6.72;100.00
52975;BME280;38839;45.186;5.720;2023-11-19T02:35:27;99882.47;;;6.71;100.00
52975;BME280;38839;45.186;5.720;2023-11-19T02:37:56;99881.53;;;6.69;100.00
52975;BME280;38839;45.186;5.720;2023-11-19T02:40:21;99883.22;;;6.67;100.00
52975;BME280;38839;45.186;5.720;2023-11-19T02:42:49;99891.81;;;6.64;100.00
52975;BME280;38839;45.186;5.720;2023-11-19T02:45:15;99884.09;;;6.68;100.00
52975;BME280;38839;45.186;5.720;2023-11-19T02:47:41;99880.63;;;6.67;100.00
52975;BME280;38839;45.186;5.720;2023-11-19T02:50:12;99876.25;;;6.66;100.00
52975;BME280;38839;45.186;5.720;2023-11-19T02:52:44;99873.72;;;6.68;100.00
52975;BME280;38839;45.186;5.720;2023-11-19T02:55:11;99868.50;;;6.66;100.00
52975;BME280;38839;45.186;5.720;2023-11-19T02:57:40;99872.75;;;6.62;100.00
52975;BME280;38839;45.186;5.720;2023-11-19T03:00:23;99872.75;;;6.62;100.00
52975;BME280;38839;45.186;5.720;2023-11-19T03:03:12;99873.69;;;6.66;100.00
52975;BME280;38839;45.186;5.720;2023-11-19T03:05:49;99871.91;;;6.63;100.00
52975;BME280;38839;45.186;5.720;2023-11-19T03:08:17;99876.97;;;6.59;100.00
52975;BME280;38839;45.186;5.720;2023-11-19T03:10:42;99864.81;;;6.56;100.00
52975;BME280;38839;45.186;5.720;2023-11-19T03:13:12;99871.59;;;6.51;100.00
52975;BME280;38839;45.186;5.720;2023-11-19T03:15:39;99877.44;;;6.42;100.00
52975;BME280;38839;45.186;5.720;2023-11-19T03:18:04;99877.34;;;6.39;100.00
52975;BME280;38839;45.186;5.720;2023-11-19T03:20:30;99877.22;;;6.35;100.00
52975;BME280;38839;45.186;5.720;2023-11-19T03:22:55;99873.78;;;6.34;100.00
52975;BME280;38839;45.186;5.720;2023-11-19T03:25:25;99878.84;;;6.30;100.00
52975;BME280;38839;45.186;5.720;2023-11-19T03:27:50;99871.84;;;6.27;100.00
52975;BME280;38839;45.186;5.720;2023-11-19T03:30:16;99876.16;;;6.27;100.00
52975;BME280;38839;45.186;5.720;2023-11-19T03:32:42;99867.50;;;6.26;100.00
52975;BME280;38839;45.186;5.720;2023-11-19T03:35:08;99858.03;;;6.27;100.00
52975;BME280;38839;45.186;5.720;2023-11-19T03:37:34;99857.09;;;6.24;100.00
52975;BME280;38839;45.186;5.720;2023-11-19T03:40:01;99871.03;;;6.28;100.00
52975;BME280;38839;45.186;5.720;2023-11-19T03:42:26;99869.09;;;6.21;100.00
52975;BME280;38839;45.186;5.720;2023-11-19T03:44:52;99864.81;;;6.23;100.00
52975;BME280;38839;45.186;5.720;2023-11-19T03:47:18;99857.91;;;6.22;100.00
52975;BME280;38839;45.186;5.720;2023-11-19T03:49:51;99864.81;;;6.23;100.00
52975;BME280;38839;45.186;5.720;2023-11-19T03:52:17;99849.19;;;6.18;100.00
52975;BME280;38839;45.186;5.720;2023-11-19T03:54:43;99857.75;;;6.16;100.00
52975;BME280;38839;45.186;5.720;2023-11-19T03:57:08;99850.63;;;6.07;100.00
52975;BME280;38839;45.186;5.720;2023-11-19T03:59:35;99851.44;;;6.06;100.00
52975;BME280;38839;45.186;5.720;2023-11-19T04:02:01;99855.81;;;6.07;100.00
52975;BME280;38839;45.186;5.720;2023-11-19T04:04:27;99854.88;;;6.05;100.00
52975;BME280;38839;45.186;5.720;2023-11-19T04:06:53;99852.25;;;6.03;100.00
52975;BME280;38839;45.186;5.720;2023-11-19T04:09:19;99855.66;;;6.02;100.00
52975;BME280;38839;45.186;5.720;2023-11-19T04:11:44;99860.84;;;6.02;100.00
52975;BME280;38839;45.186;5.720;2023-11-19T04:14:12;99860.94;;;6.06;100.00
52975;BME280;38839;45.186;5.720;2023-11-19T04:16:38;99863.59;;;6.09;100.00
52975;BME280;38839;45.186;5.720;2023-11-19T04:19:03;99864.44;;;6.08;100.00
52975;BME280;38839;45.186;5.720;2023-11-19T04:21:29;99854.88;;;6.05;100.00
52975;BME280;38839;45.186;5.720;2023-11-19T04:23:54;99861.09;;;6.12;100.00
52975;BME280;38839;45.186;5.720;2023-11-19T04:26:19;99861.91;;;6.09;100.00
52975;BME280;38839;45.186;5.720;2023-11-19T04:28:45;99865.41;;;6.11;100.00
52975;BME280;38839;45.186;5.720;2023-11-19T04:31:10;99862.84;;;6.13;100.00
52975;BME280;38839;45.186;5.720;2023-11-19T04:33:37;99860.09;;;6.07;100.00
52975;BME280;38839;45.186;5.720;2023-11-19T04:36:07;99857.50;;;6.07;100.00
52975;BME280;38839;45.186;5.720;2023-11-19T04:38:38;99846.09;;;6.00;100.00
52975;BME280;38839;45.186;5.720;2023-11-19T04:41:13;99855.75;;;6.06;100.00
52975;BME280;38839;45.186;5.720;2023-11-19T04:43:42;99856.72;;;6.09;100.00
52975;BME280;38839;45.186;5.720;2023-11-19T04:46:15;99852.53;;;6.14;100.00
52975;BME280;38839;45.186;5.720;2023-11-19T04:48:44;99852.63;;;6.19;100.00
52975;BME280;38839;45.186;5.720;2023-11-19T04:51:17;99837.19;;;6.22;100.00
52975;BME280;38839;45.186;5.720;2023-11-19T04:53:49;99846.75;;;6.24;100.00
52975;BME280;38839;45.186;5.720;2023-11-19T04:56:21;99840.69;;;6.24;100.00
52975;BME280;38839;45.186;5.720;2023-11-19T04:58:55;99845.88;;;6.24;100.00
52975;BME280;38839;45.186;5.720;2023-11-19T05:01:27;99839.00;;;6.26;100.00
52975;BME280;38839;45.186;5.720;2023-11-19T05:04:00;99831.28;;;6.28;100.00
52975;BME280;38839;45.186;5.720;2023-11-19T05:06:33;99834.69;;;6.27;100.00
52975;BME280;38839;45.186;5.720;2023-11-19T05:09:09;99836.53;;;6.31;100.00
52975;BME280;38839;45.186;5.720;2023-11-19T05:11:43;99827.88;;;6.30;100.00
52975;BME280;38839;45.186;5.720;2023-11-19T05:14:16;99822.50;;;6.22;100.00
52975;BME280;38839;45.186;5.720;2023-11-19T05:16:49;99824.19;;;6.20;100.00
52975;BME280;38839;45.186;5.720;2023-11-19T05:19:21;99829.31;;;6.17;100.00
52975;BME280;38839;45.186;5.720;2023-11-19T05:21:53;99830.06;;;6.15;100.00
52975;BME280;38839;45.186;5.720;2023-11-19T05:24:28;99833.41;;;6.11;100.00
52975;BME280;38839;45.186;5.720;2023-11-19T05:27:00;99828.94;;;6.03;100.00
52975;BME280;38839;45.186;5.720;2023-11-19T05:29:34;99823.44;;;5.93;100.00
52975;BME280;38839;45.186;5.720;2023-11-19T05:32:05;99820.72;;;5.88;100.00
52975;BME280;38839;45.186;5.720;2023-11-19T05:34:39;99822.38;;;5.84;100.00
52975;BME280;38839;45.186;5.720;2023-11-19T05:37:12;99816.28;;;5.84;100.00
52975;BME280;38839;45.186;5.720;2023-11-19T05:39:45;99819.81;;;5.86;100.00
52975;BME280;38839;45.186;5.720;2023-11-19T05:42:16;99820.72;;;5.88;100.00
52975;BME280;38839;45.186;5.720;2023-11-19T05:44:47;99812.19;;;5.92;100.00
52975;BME280;38839;45.186;5.720;2023-11-19T05:47:24;99817.38;;;5.92;100.00
52975;BME280;38839;45.186;5.720;2023-11-19T05:49:58;99811.38;;;5.93;100.00
52975;BME280;38839;45.186;5.720;2023-11-19T05:52:31;99812.19;;;5.92;100.00
52975;BME280;38839;45.186;5.720;2023-11-19T05:55:04;99816.66;;;5.96;100.00
52975;BME280;38839;45.186;5.720;2023-11-19T05:57:39;99818.47;;;5.99;100.00
52975;BME280;38839;45.186;5.720;2023-11-19T06:00:10;99822.84;;;6.01;100.00
52975;BME280;38839;45.186;5.720;2023-11-19T06:02:40;99816.78;;;6.01;100.00
52975;BME280;38839;45.186;5.720;2023-11-19T06:05:15;99829.66;;;5.98;100.00
52975;BME280;38839;45.186;5.720;2023-11-19T06:07:48;99812.47;;;6.01;100.00
52975;BME280;38839;45.186;5.720;2023-11-19T06:10:21;99814.22;;;6.02;100.00
52975;BME280;38839;45.186;5.720;2023-11-19T06:12:58;99809.13;;;6.06;100.00
52975;BME280;38839;45.186;5.720;2023-11-19T06:15:33;99813.56;;;6.10;100.00
52975;BME280;38839;45.186;5.720;2023-11-19T06:18:04;99809.03;;;6.01;100.00
52975;BME280;38839;45.186;5.720;2023-11-19T06:20:35;99811.53;;;5.98;100.00
52975;BME280;38839;45.186;5.720;2023-11-19T06:23:07;99808.78;;;5.93;100.00
52975;BME280;38839;45.186;5.720;2023-11-19T06:25:42;99797.50;;;5.91;100.00
52975;BME280;38839;45.186;5.720;2023-11-19T06:28:14;99791.59;;;5.95;100.00
52975;BME280;38839;45.186;5.720;2023-11-19T06:30:39;99806.28;;;5.96;100.00
52975;BME280;38839;45.186;5.720;2023-11-19T06:33:06;99801.78;;;5.89;100.00
52975;BME280;38839;45.186;5.720;2023-11-19T06:35:32;99795.56;;;5.84;100.00
52975;BME280;38839;45.186;5.720;2023-11-19T06:38:02;99796.50;;;5.86;100.00
52975;BME280;38839;45.186;5.720;2023-11-19T06:40:34;99796.78;;;5.95;100.00
52975;BME280;38839;45.186;5.720;2023-11-19T06:43:02;99789.88;;;5.96;100.00
52975;BME280;38839;45.186;5.720;2023-11-19T06:45:33;99797.84;;;5.72;100.00
52975;BME280;38839;45.186;5.720;2023-11-19T06:48:01;99792.44;;;5.62;100.00
52975;BME280;38839;45.186;5.720;2023-11-19T06:50:28;99792.44;;;5.62;100.00
52975;BME280;38839;45.186;5.720;2023-11-19T06:52:53;99801.28;;;5.71;100.00
52975;BME280;38839;45.186;5.720;2023-11-19T06:55:19;99802.97;;;5.69;100.00
52975;BME280;38839;45.186;5.720;2023-11-19T06:57:44;99806.53;;;5.74;100.00
52975;BME280;38839;45.186;5.720;2023-11-19T07:00:10;99797.94;;;5.75;100.00
52975;BME280;38839;45.186;5.720;2023-11-19T07:02:36;99792.81;;;5.78;100.00
52975;BME280;38839;45.186;5.720;2023-11-19T07:05:02;99797.25;;;5.82;100.00
52975;BME280;38839;45.186;5.720;2023-11-19T07:07:30;99806.78;;;5.83;100.00
52975;BME280;38839;45.186;5.720;2023-11-19T07:09:56;99804.09;;;5.78;100.00
52975;BME280;38839;45.186;5.720;2023-11-19T07:12:22;99798.00;;;5.78;100.00
52975;BME280;38839;45.186;5.720;2023-11-19T07:14:47;99801.59;;;5.83;100.00
52975;BME280;38839;45.186;5.720;2023-11-19T07:17:13;99791.41;;;5.89;100.00
52975;BME280;38839;45.186;5.720;2023-11-19T07:19:38;99795.06;;;5.96;100.00
52975;BME280;38839;45.186;5.720;2023-11-19T07:22:04;99796.84;;;5.98;100.00
52975;BME280;38839;45.186;5.720;2023-11-19T07:24:31;99800.56;;;6.08;100.00
52975;BME280;38839;45.186;5.720;2023-11-19T07:26:56;99792.97;;;6.16;100.00
52975;BME280;38839;45.186;5.720;2023-11-19T07:29:22;99800.06;;;6.23;100.00
52975;BME280;38839;45.186;5.720;2023-11-19T07:31:50;99792.38;;;6.26;100.00
52975;BME280;38839;45.186;5.720;2023-11-19T07:34:16;99787.00;;;6.18;100.00
52975;BME280;38839;45.186;5.720;2023-11-19T07:36:41;99793.03;;;6.19;100.00
52975;BME280;38839;45.186;5.720;2023-11-19T07:39:07;99790.59;;;6.25;100.00
52975;BME280;38839;45.186;5.720;2023-11-19T07:41:33;99787.97;;;6.22;100.00
52975;BME280;38839;45.186;5.720;2023-11-19T07:44:00;99797.31;;;6.17;100.00
52975;BME280;38839;45.186;5.720;2023-11-19T07:46:25;99806.00;;;6.19;100.00
52975;BME280;38839;45.186;5.720;2023-11-19T07:48:52;99802.19;;;6.04;100.00
52975;BME280;38839;45.186;5.720;2023-11-19T07:51:17;99799.56;;;6.03;100.00
52975;BME280;38839;45.186;5.720;2023-11-19T07:53:42;99799.91;;;6.17;100.00
52975;BME280;38839;45.186;5.720;2023-11-19T07:56:08;99796.03;;;6.34;100.00
52975;BME280;38839;45.186;5.720;2023-11-19T07:58:34;99804.06;;;6.45;100.00
52975;BME280;38839;45.186;5.720;2023-11-19T08:01:00;99808.47;;;6.49;100.00
52975;BME280;38839;45.186;5.720;2023-11-19T08:03:27;99808.22;;;6.38;100.00
52975;BME280;38839;45.186;5.720;2023-11-19T08:05:55;99808.97;;;6.34;100.00
52975;BME280;38839;45.186;5.720;2023-11-19T08:08:21;99803.84;;;6.37;100.00
52975;BME280;38839;45.186;5.720;2023-11-19T08:10:46;99813.69;;;6.51;100.00
52975;BME280;38839;45.186;5.720;2023-11-19T08:13:13;99819.03;;;6.57;100.00
52975;BME280;38839;45.186;5.720;2023-11-19T08:15:38;99825.91;;;6.55;100.00
52975;BME280;38839;45.186;5.720;2023-11-19T08:18:08;99834.63;;;6.60;100.00
52975;BME280;38839;45.186;5.720;2023-11-19T08:20:34;99833.00;;;6.63;100.00
52975;BME280;38839;45.186;5.720;2023-11-19T08:22:59;99834.94;;;6.72;100.00
52975;BME280;38839;45.186;5.720;2023-11-19T15:59:39;99596.59;;;13.92;100.00
52975;BME280;38839;45.186;5.720;2023-11-19T16:02:05;99600.13;;;13.89;100.00
52975;BME280;38839;45.186;5.720;2023-11-19T16:04:30;99599.28;;;13.88;100.00
52975;BME280;38839;45.186;5.720;2023-11-19T16:06:56;99603.63;;;13.88;100.00
52975;BME280;38839;45.186;5.720;2023-11-19T16:09:22;99611.53;;;13.86;100.00
52975;BME280;38839;45.186;5.720;2023-11-19T16:11:48;99612.41;;;13.84;100.00
52975;BME280;38839;45.186;5.720;2023-11-19T16:14:14;99615.97;;;13.77;100.00
52975;BME280;38839;45.186;5.720;2023-11-19T16:16:40;99612.44;;;13.81;100.00
52975;BME280;38839;45.186;5.720;2023-11-19T16:19:06;99617.69;;;13.82;100.00
52975;BME280;38839;45.186;5.720;2023-11-19T16:21:33;99614.22;;;13.79;100.00
52975;BME280;38839;45.186;5.720;2023-11-19T16:24:02;99619.47;;;13.76;100.00
52975;BME280;38839;45.186;5.720;2023-11-19T16:26:28;99615.13;;;13.73;100.00
52975;BME280;38839;45.186;5.720;2023-11-19T16:28:56;99617.81;;;13.68;100.00
52975;BME280;38839;45.186;5.720;2023-11-19T16:31:22;99619.56;;;13.68;100.00
52975;BME280;38839;45.186;5.720;2023-11-19T16:33:47;99618.66;;;13.71;100.00
52975;BME280;38839;45.186;5.720;2023-11-19T16:36:14;99617.75;;;13.72;100.00
52975;BME280;38839;45.186;5.720;2023-11-19T16:38:39;99622.09;;;13.79;100.00
52975;BME280;38839;45.186;5.720;2023-11-19T16:41:05;99619.50;;;13.73;100.00
52975;BME280;38839;45.186;5.720;2023-11-19T16:43:31;99628.28;;;13.68;100.00
52975;BME280;38839;45.186;5.720;2023-11-19T16:45:56;99623.09;;;13.62;100.00
52975;BME280;38839;45.186;5.720;2023-11-19T16:48:22;99630.13;;;13.57;100.00
52975;BME280;38839;45.186;5.720;2023-11-19T16:50:51;99636.25;;;13.58;100.00
52975;BME280;38839;45.186;5.720;2023-11-19T16:53:21;99630.91;;;13.65;100.00
52975;BME280;38839;45.186;5.720;2023-11-19T16:55:49;99633.53;;;13.65;100.00
52975;BME280;38839;45.186;5.720;2023-11-19T16:58:15;99630.06;;;13.63;100.00
52975;BME280;38839;45.186;5.720;2023-11-19T17:00:40;99634.44;;;13.63;100.00
52975;BME280;38839;45.186;5.720;2023-11-19T17:03:05;99638.78;;;13.65;100.00
52975;BME280;38839;45.186;5.720;2023-11-19T17:05:31;99639.69;;;13.63;100.00
52975;BME280;38839;45.186;5.720;2023-11-19T17:08:00;99646.69;;;13.62;100.00
52975;BME280;38839;45.186;5.720;2023-11-19T17:10:25;99643.25;;;13.56;100.00
52975;BME280;38839;45.186;5.720;2023-11-19T17:12:52;99645.88;;;13.51;100.00
52975;BME280;38839;45.186;5.720;2023-11-19T17:15:18;99647.69;;;13.44;100.00
52975;BME280;38839;45.186;5.720;2023-11-19T17:17:44;99653.81;;;13.42;100.00
52975;BME280;38839;45.186;5.720;2023-11-19T17:20:10;99646.91;;;13.33;100.00
52975;BME280;38839;45.186;5.720;2023-11-19T17:22:38;99645.19;;;13.29;100.00
52975;BME280;38839;45.186;5.720;2023-11-19T17:25:05;99644.25;;;13.28;100.00
52975;BME280;38839;45.186;5.720;2023-11-19T17:27:36;99653.91;;;13.22;100.00
52975;BME280;38839;45.186;5.720;2023-11-19T17:30:04;99641.72;;;13.16;100.00
52975;BME280;38839;45.186;5.720;2023-11-19T17:32:30;99645.25;;;13.11;100.00
52975;BME280;38839;45.186;5.720;2023-11-19T17:34:57;99654.00;;;13.06;100.00
52975;BME280;38839;45.186;5.720;2023-11-19T17:37:24;99644.44;;;13.01;100.00
52975;BME280;38839;45.186;5.720;2023-11-19T17:39:49;99647.94;;;12.95;100.00
52975;BME280;38839;45.186;5.720;2023-11-19T17:42:15;99645.34;;;12.91;100.00
52975;BME280;38839;45.186;5.720;2023-11-19T17:44:41;99647.97;;;12.87;100.00
52975;BME280;38839;45.186;5.720;2023-11-19T17:47:06;99653.22;;;12.81;100.00
52975;BME280;38839;45.186;5.720;2023-11-19T17:49:32;99661.09;;;12.84;100.00
52975;BME280;38839;45.186;5.720;2023-11-19T17:51:57;99658.44;;;12.87;100.00
52975;BME280;38839;45.186;5.720;2023-11-19T17:54:24;99668.06;;;12.85;100.00
52975;BME280;38839;45.186;5.720;2023-11-19T17:56:50;99661.97;;;12.85;100.00
52975;BME280;38839;45.186;5.720;2023-11-19T17:59:16;99667.22;;;12.80;100.00
52975;BME280;38839;45.186;5.720;2023-11-19T18:01:44;99669.84;;;12.79;100.00
52975;BME280;38839;45.186;5.720;2023-11-19T18:04:10;99668.09;;;12.81;100.00
52975;BME280;38839;45.186;5.720;2023-11-19T18:06:36;99665.47;;;12.79;100.00
52975;BME280;38839;45.186;5.720;2023-11-19T18:09:03;99665.47;;;12.79;100.00
52975;BME280;38839;45.186;5.720;2023-11-19T18:11:29;99671.59;;;12.78;100.00
52975;BME280;38839;45.186;5.720;2023-11-19T18:14:01;99672.47;;;12.80;100.00
52975;BME280;38839;45.186;5.720;2023-11-19T18:16:27;99672.44;;;12.86;100.00
52975;BME280;38839;45.186;5.720;2023-11-19T18:18:52;99674.16;;;12.91;100.00
52975;BME280;38839;45.186;5.720;2023-11-19T18:21:18;99667.19;;;12.86;100.00
52975;BME280;38839;45.186;5.720;2023-11-19T18:23:43;99672.44;;;12.86;100.00
52975;BME280;38839;45.186;5.720;2023-11-19T18:26:10;99672.44;;;12.83;100.00
52975;BME280;38839;45.186;5.720;2023-11-19T18:28:36;99668.94;;;12.83;100.00
52975;BME280;38839;45.186;5.720;2023-11-19T18:31:01;99668.09;;;12.81;100.00
52975;BME280;38839;45.186;5.720;2023-11-19T18:33:27;99667.25;;;12.74;100.00
52975;BME280;38839;45.186;5.720;2023-11-19T18:35:52;99658.53;;;12.66;100.00
52975;BME280;38839;45.186;5.720;2023-11-19T18:38:17;99658.59;;;12.54;100.00
52975;BME280;38839;45.186;5.720;2023-11-19T18:40:43;99667.34;;;12.43;100.00
52975;BME280;38839;45.186;5.720;2023-11-19T18:43:08;99660.34;;;12.36;100.00
52975;BME280;38839;45.186;5.720;2023-11-19T18:45:34;99657.75;;;12.30;100.00
52975;BME280;38839;45.186;5.720;2023-11-19T18:48:00;99656.03;;;12.26;100.00
52975;BME280;38839;45.186;5.720;2023-11-19T18:50:25;99653.44;;;12.23;100.00
52975;BME280;38839;45.186;5.720;2023-11-19T18:52:51;99656.03;;;12.20;100.00
52975;BME280;38839;45.186;5.720;2023-11-19T18:55:16;99647.34;;;12.16;100.00
52975;BME280;38839;45.186;5.720;2023-11-19T18:57:41;99646.47;;;12.13;100.00
52975;BME280;38839;45.186;5.720;2023-11-19T19:00:07;99653.44;;;12.11;100.00
52975;BME280;38839;45.186;5.720;2023-11-19T19:02:35;99654.31;;;12.10;100.00
52975;BME280;38839;45.186;5.720;2023-11-19T19:05:01;99653.44;;;12.04;100.00
52975;BME280;38839;45.186;5.720;2023-11-19T19:07:27;99660.41;;;11.99;100.00
52975;BME280;38839;45.186;5.720;2023-11-19T19:09:53;99663.03;;;11.95;100.00
52975;BME280;38839;45.186;5.720;2023-11-19T19:12:19;99671.75;;;11.91;100.00
52975;BME280;38839;45.186;5.720;2023-11-19T19:14:45;99674.38;;;11.91;100.00
52975;BME280;38839;45.186;5.720;2023-11-19T19:17:10;99669.13;;;11.89;100.00
52975;BME280;38839;45.186;5.720;2023-11-19T19:19:36;99670.84;;;11.87;100.00
52975;BME280;38839;45.186;5.720;2023-11-19T19:22:03;99676.09;;;11.85;100.00
52975;BME280;38839;45.186;5.720;2023-11-19T19:24:28;99676.06;;;11.81;100.00
52975;BME280;38839;45.186;5.720;2023-11-19T19:26:54;99676.97;;;11.75;100.00
52975;BME280;38839;45.186;5.720;2023-11-19T19:29:19;99681.31;;;11.72;100.00
52975;BME280;38839;45.186;5.720;2023-11-19T19:31:45;99676.06;;;11.68;100.00
52975;BME280;38839;45.186;5.720;2023-11-19T19:34:10;99684.78;;;11.64;100.00
52975;BME280;38839;45.186;5.720;2023-11-19T19:36:36;99683.03;;;11.60;100.00
52975;BME280;38839;45.186;5.720;2023-11-19T19:39:01;99678.69;;;11.59;100.00
52975;BME280;38839;45.186;5.720;2023-11-19T19:41:28;99683.03;;;11.54;100.00
52975;BME280;38839;45.186;5.720;2023-11-19T19:43:54;99677.78;;;11.50;100.00
52975;BME280;38839;45.186;5.720;2023-11-19T19:46:19;99676.06;;;11.47;100.00
52975;BME280;38839;45.186;5.720;2023-11-19T19:48:45;99667.34;;;11.45;100.00
52975;BME280;38839;45.186;5.720;2023-11-19T19:51:11;99675.16;;;11.43;100.00
52975;BME280;38839;45.186;5.720;2023-11-19T19:53:37;99679.53;;;11.41;100.00
52975;BME280;38839;45.186;5.720;2023-11-19T19:56:07;99675.19;;;11.40;100.00
52975;BME280;38839;45.186;5.720;2023-11-19T19:58:34;99670.81;;;11.36;100.00
52975;BME280;38839;45.186;5.720;2023-11-19T20:00:59;99670.81;;;11.35;100.00
52975;BME280;38839;45.186;5.720;2023-11-19T20:03:26;99676.03;;;11.35;100.00
52975;BME280;38839;45.186;5.720;2023-11-19T20:05:55;99670.78;;;11.32;100.00
52975;BME280;38839;45.186;5.720;2023-11-19T20:08:21;99674.28;;;11.31;100.00
52975;BME280;38839;45.186;5.720;2023-11-19T20:10:47;99674.25;;;11.27;100.00
52975;BME280;38839;45.186;5.720;2023-11-19T20:13:12;99674.28;;;11.24;100.00
52975;BME280;38839;45.186;5.720;2023-11-19T20:15:40;99669.91;;;11.20;100.00
52975;BME280;38839;45.186;5.720;2023-11-19T20:18:07;99674.25;;;11.18;100.00
52975;BME280;38839;45.186;5.720;2023-11-19T20:20:35;99679.44;;;11.15;100.00
52975;BME280;38839;45.186;5.720;2023-11-19T20:23:04;99673.38;;;11.15;100.00
52975;BME280;38839;45.186;5.720;2023-11-19T20:25:29;99691.63;;;11.10;100.00
52975;BME280;38839;45.186;5.720;2023-11-19T20:27:55;99682.94;;;11.08;100.00
52975;BME280;38839;45.186;5.720;2023-11-19T20:30:22;99683.81;;;11.05;100.00
52975;BME280;38839;45.186;5.720;2023-11-19T20:32:48;99689.00;;;11.08;100.00